KCRG/CRG METAR and TAF weather

Enter ICAO airport designator
Station Type Date Time Source
KCRG METAR 2021/05/17 21:53 UTC NOAA

KCRG 172153Z 10009KT 10SM FEW042 26/14 A3016 RMK AO2 SLP214 T02610144


Station Type Date Time Source
KCRG Decoded METAR 2021/05/17 21:53 UTC NOAA

JACKSONVILLE CRAIG MUN, FL, United States (KCRG) 30-20N 81-31W 13M
May 17, 2021 - 05:53 PM EDT / 2021.05.17 2153 UTC
Wind: from the E (100 degrees) at 10 MPH (9 KT):0
Visibility: 10 mile(s):0
Sky conditions: mostly clear
Temperature: 79.0 F (26.1 C)
Dew Point: 57.9 F (14.4 C)
Relative Humidity: 48%
Pressure (altimeter): 30.16 in. Hg (1021 hPa)
ob: KCRG 172153Z 10009KT 10SM FEW042 26/14 A3016 RMK AO2 SLP214 T02610144
cycle: 22

Station Type Date Time Source
KCRG TAF 2021/05/17 18:33 UTC NOAA

TAF KCRG 171729Z 1718/1818 09014G22KT P6SM FEW040 BKN250
FM180000 09006KT P6SM FEW030 SCT250
FM181400 10014G21KT P6SM SCT040 SCT250

Example: see airport list